createdAt,value
2023-03-15T00:01:29.178Z,4.95
2023-03-15T00:04:41.940Z,4.85
2023-03-15T00:07:54.265Z,5.00
2023-03-15T00:11:06.987Z,4.80
2023-03-15T00:14:19.379Z,5.03
2023-03-15T00:17:34.866Z,4.65
2023-03-15T00:20:47.399Z,4.45
2023-03-15T00:24:00.051Z,4.50
2023-03-15T00:27:12.421Z,4.30
2023-03-15T00:30:25.053Z,4.00
2023-03-15T00:33:37.404Z,4.20
2023-03-15T00:36:50.218Z,3.00
2023-03-15T00:40:02.656Z,3.30
2023-03-15T00:43:17.945Z,2.90
2023-03-15T00:46:30.415Z,2.92
2023-03-15T00:49:43.268Z,2.92
2023-03-15T00:52:55.606Z,2.95
2023-03-15T00:56:10.370Z,2.83
2023-03-15T00:59:22.707Z,2.42
2023-03-15T01:02:37.344Z,2.60
2023-03-15T01:05:49.956Z,2.80
2023-03-15T01:09:02.839Z,2.55
2023-03-15T01:12:15.268Z,2.30
2023-03-15T01:15:27.897Z,2.00
2023-03-15T01:18:41.335Z,2.35
2023-03-15T01:21:53.940Z,1.87
2023-03-15T01:25:06.680Z,2.30
2023-03-15T01:28:19.551Z,1.80
2023-03-15T01:31:31.942Z,2.30
2023-03-15T01:34:44.784Z,2.62
2023-03-15T01:37:57.343Z,2.37
2023-03-15T01:41:11.965Z,2.55
2023-03-15T01:44:24.615Z,2.17
2023-03-15T01:47:37.348Z,2.15
2023-03-15T01:50:49.891Z,1.62
2023-03-15T01:54:08.761Z,1.92
2023-03-15T01:57:24.439Z,2.10
2023-03-15T02:00:37.227Z,1.92
2023-03-15T02:03:53.726Z,2.00
2023-03-15T02:07:06.665Z,1.75
2023-03-15T02:10:41.130Z,1.95
2023-03-15T02:13:54.054Z,1.80
2023-03-15T02:17:06.838Z,1.58
2023-03-15T02:20:50.675Z,1.40
2023-03-15T02:24:18.733Z,1.90
2023-03-15T02:30:43.964Z,1.80
2023-03-15T02:33:56.319Z,1.62
2023-03-15T02:37:10.085Z,1.80
2023-03-15T02:40:23.511Z,1.70
2023-03-15T02:43:36.119Z,1.98
2023-03-15T02:46:49.853Z,1.92
2023-03-15T02:50:07.671Z,1.55
2023-03-15T02:53:20.022Z,1.87
2023-03-15T02:56:33.659Z,1.80
2023-03-15T02:59:46.536Z,1.90
2023-03-15T03:02:59.323Z,1.83
2023-03-15T03:06:12.252Z,1.87
2023-03-15T03:09:25.387Z,2.10
2023-03-15T03:12:38.552Z,1.90
2023-03-15T03:15:58.511Z,1.90
2023-03-15T03:19:14.323Z,1.85
2023-03-15T03:22:27.466Z,1.80
2023-03-15T03:25:39.967Z,1.95
2023-03-15T03:28:52.586Z,2.00
2023-03-15T03:32:05.432Z,2.10
2023-03-15T03:35:18.158Z,1.90
2023-03-15T03:38:30.700Z,1.70
2023-03-15T03:41:43.825Z,1.70
2023-03-15T03:44:56.887Z,2.10
2023-03-15T03:48:14.986Z,1.87
2023-03-15T03:51:27.405Z,2.12
2023-03-15T03:54:40.077Z,2.05
2023-03-15T03:57:53.200Z,1.90
2023-03-15T04:01:07.302Z,2.20
2023-03-15T04:04:20.362Z,1.80
2023-03-15T04:07:32.876Z,1.80
2023-03-15T04:10:45.522Z,1.95
2023-03-15T04:13:57.908Z,2.00
2023-03-15T04:17:12.598Z,1.80
2023-03-15T04:20:26.797Z,1.70
2023-03-15T04:23:39.632Z,2.25
2023-03-15T04:26:57.875Z,2.10
2023-03-15T04:30:11.641Z,1.90
2023-03-15T04:33:27.745Z,1.50
2023-03-15T04:36:42.726Z,1.70
2023-03-15T04:39:55.318Z,1.67
2023-03-15T04:43:08.735Z,1.65
2023-03-15T04:46:23.887Z,1.70
2023-03-15T04:49:38.288Z,2.10
2023-03-15T04:52:51.150Z,2.00
2023-03-15T04:56:04.918Z,2.87
2023-03-15T04:59:18.111Z,3.83
2023-03-15T05:02:31.329Z,3.87
2023-03-15T05:05:45.180Z,1.50
2023-03-15T05:08:57.990Z,1.10
2023-03-15T05:12:10.793Z,1.37
2023-03-15T05:15:23.911Z,2.33
2023-03-15T05:18:36.537Z,2.40
2023-03-15T05:21:49.437Z,1.83
2023-03-15T05:25:01.990Z,2.25
2023-03-15T05:28:18.237Z,1.25
2023-03-15T05:31:36.802Z,1.30
2023-03-15T05:34:50.389Z,1.37
2023-03-15T05:38:03.705Z,1.40
2023-03-15T05:41:18.042Z,1.42
2023-03-15T05:44:30.605Z,1.50
2023-03-15T05:47:43.374Z,1.33
2023-03-15T05:50:55.829Z,1.55
2023-03-15T05:54:08.850Z,1.70
2023-03-15T05:57:21.477Z,1.58
2023-03-15T06:00:34.289Z,1.52
2023-03-15T06:03:47.628Z,1.50
2023-03-15T06:07:00.964Z,1.70
2023-03-15T06:10:14.175Z,1.30
2023-03-15T06:13:26.641Z,1.70
2023-03-15T06:16:39.614Z,1.77
2023-03-15T06:19:52.838Z,1.90
2023-03-15T06:23:06.393Z,2.00
2023-03-15T06:26:20.289Z,1.80
2023-03-15T06:29:33.505Z,2.22
2023-03-15T06:32:46.059Z,1.98
2023-03-15T06:35:59.125Z,2.08
2023-03-15T06:39:13.625Z,2.05
2023-03-15T06:42:26.358Z,2.40
2023-03-15T06:45:38.685Z,2.47
2023-03-15T06:48:51.444Z,2.42
2023-03-15T06:52:04.632Z,2.47
2023-03-15T06:55:18.527Z,2.50
2023-03-15T06:58:31.063Z,2.03
2023-03-15T07:01:43.734Z,3.00
2023-03-15T07:04:56.133Z,2.80
2023-03-15T07:08:08.826Z,3.35
2023-03-15T07:11:21.186Z,3.60
2023-03-15T07:14:34.483Z,3.35
2023-03-15T07:17:46.843Z,2.75
2023-03-15T07:21:00.281Z,3.83
2023-03-15T07:24:12.637Z,3.72
2023-03-15T07:27:25.258Z,3.58
2023-03-15T07:30:37.576Z,3.92
2023-03-15T07:33:50.281Z,3.70
2023-03-15T07:37:02.650Z,3.70
2023-03-15T07:40:16.166Z,3.78
2023-03-15T07:43:29.444Z,4.25
2023-03-15T07:46:43.997Z,3.15
2023-03-15T07:49:56.657Z,2.65
2023-03-15T07:53:09.256Z,3.10
2023-03-15T07:56:21.631Z,3.10
2023-03-15T07:59:34.320Z,3.50
2023-03-15T08:02:46.770Z,3.58
2023-03-15T08:05:59.479Z,2.87
2023-03-15T08:09:12.068Z,3.17
2023-03-15T08:12:25.159Z,3.15
2023-03-15T08:15:37.520Z,2.58
2023-03-15T08:18:50.214Z,2.92
2023-03-15T08:22:02.612Z,2.42
2023-03-15T08:25:16.462Z,3.45
2023-03-15T08:28:28.806Z,3.40
2023-03-15T08:31:41.826Z,3.42
2023-03-15T08:34:54.254Z,3.25
2023-03-15T08:38:06.899Z,3.03
2023-03-15T08:41:19.196Z,2.78
2023-03-15T08:44:31.887Z,2.95
2023-03-15T08:47:44.232Z,2.70
2023-03-15T08:51:02.373Z,2.97
2023-03-15T08:54:14.826Z,3.55
2023-03-15T08:57:28.922Z,3.53
2023-03-15T09:00:41.292Z,3.10
2023-03-15T09:03:53.897Z,2.85
2023-03-15T09:07:06.321Z,2.80
2023-03-15T09:10:19.267Z,3.12
2023-03-15T09:13:31.660Z,2.85
2023-03-15T09:16:44.312Z,2.75
2023-03-15T09:19:56.642Z,3.30
2023-03-15T09:23:09.248Z,3.00
2023-03-15T09:26:21.598Z,2.85
2023-03-15T09:29:34.286Z,2.70
2023-03-15T09:32:46.714Z,2.58
2023-03-15T09:36:00.820Z,2.78
2023-03-15T09:39:13.187Z,2.65
2023-03-15T09:42:49.581Z,2.45
2023-03-15T09:46:17.900Z,3.22
2023-03-15T09:49:52.265Z,2.37
2023-03-15T09:53:06.824Z,2.40
2023-03-15T09:56:25.520Z,2.58
2023-03-15T09:59:42.469Z,2.45
2023-03-15T10:03:01.575Z,2.50
2023-03-15T10:06:28.089Z,2.90
2023-03-15T10:09:40.425Z,2.70
2023-03-15T10:13:04.752Z,2.50
2023-03-15T10:16:30.211Z,2.60
2023-03-15T10:19:59.151Z,2.75
2023-03-15T10:23:20.655Z,2.95
2023-03-15T10:26:35.114Z,2.55
2023-03-15T10:29:51.783Z,2.15
2023-03-15T10:33:05.392Z,2.40
2023-03-15T10:36:19.718Z,2.45
2023-03-15T10:39:32.350Z,2.70
2023-03-15T10:42:45.997Z,2.22
2023-03-15T10:46:06.584Z,2.60
2023-03-15T10:49:19.007Z,2.75
2023-03-15T10:52:31.839Z,2.83
2023-03-15T10:55:44.885Z,4.22
2023-03-15T10:59:11.513Z,3.35
2023-03-15T11:02:25.413Z,2.87
2023-03-15T11:05:46.078Z,3.37
2023-03-15T11:09:09.038Z,2.95
2023-03-15T11:12:25.425Z,2.92
2023-03-15T11:15:39.886Z,2.80
2023-03-15T11:19:00.413Z,2.72
2023-03-15T11:22:13.798Z,2.80
2023-03-15T11:25:34.021Z,2.28
2023-03-15T11:28:49.246Z,2.50
2023-03-15T11:32:04.037Z,3.22
2023-03-15T11:35:55.307Z,2.45
2023-03-15T11:39:10.687Z,2.17
2023-03-15T11:42:30.057Z,2.80
2023-03-15T11:45:49.273Z,2.60
2023-03-15T11:49:24.237Z,2.58
2023-03-15T11:52:36.853Z,2.50
2023-03-15T11:55:50.372Z,2.12
2023-03-15T11:59:11.359Z,2.20
2023-03-15T12:02:23.662Z,1.80
2023-03-15T12:05:43.332Z,2.30
2023-03-15T12:08:55.670Z,2.45
2023-03-15T12:12:26.816Z,2.30
2023-03-15T12:15:39.067Z,2.22
2023-03-15T12:18:52.117Z,2.58
2023-03-15T12:22:04.452Z,2.17
2023-03-15T12:25:33.871Z,2.70
2023-03-15T12:28:51.809Z,2.75
2023-03-15T12:32:04.390Z,2.62
2023-03-15T12:35:17.715Z,2.78
2023-03-15T12:38:39.336Z,2.83
2023-03-15T12:41:51.825Z,3.03
2023-03-15T12:45:27.414Z,2.75
2023-03-15T12:48:40.063Z,3.08
2023-03-15T12:52:11.912Z,3.30
2023-03-15T12:55:24.289Z,2.92
2023-03-15T12:58:37.074Z,2.83
2023-03-15T13:01:51.436Z,2.80
2023-03-15T13:05:22.892Z,3.37
2023-03-15T13:08:47.674Z,2.65
2023-03-15T13:12:05.238Z,2.47
2023-03-15T13:18:44.880Z,3.35
2023-03-15T13:22:12.542Z,3.22
2023-03-15T13:25:51.050Z,2.55
2023-03-15T13:29:17.786Z,2.75
2023-03-15T13:32:30.424Z,3.12
2023-03-15T13:35:57.471Z,2.70
2023-03-15T13:39:33.487Z,2.78
2023-03-15T13:42:45.853Z,3.55
2023-03-15T13:45:58.877Z,2.55
2023-03-15T13:49:12.221Z,3.00
2023-03-15T13:52:27.650Z,2.40
2023-03-15T13:55:39.984Z,2.80
2023-03-15T13:58:53.029Z,2.85
2023-03-15T14:02:05.498Z,2.47
2023-03-15T14:05:19.639Z,2.83
2023-03-15T14:08:35.938Z,2.80
2023-03-15T14:12:07.457Z,2.78
2023-03-15T14:15:41.392Z,3.03
2023-03-15T14:18:55.142Z,3.33
2023-03-15T14:22:15.765Z,2.28
2023-03-15T14:25:28.458Z,3.12
2023-03-15T14:28:40.966Z,2.62
2023-03-15T14:31:53.680Z,2.47
2023-03-15T14:35:08.065Z,2.22
2023-03-15T14:38:26.685Z,2.08
2023-03-15T14:41:39.203Z,1.73
2023-03-15T14:44:52.944Z,1.98
2023-03-15T14:48:13.892Z,1.58
2023-03-15T14:51:26.508Z,1.85
2023-03-15T14:54:38.900Z,2.08
2023-03-15T14:57:51.622Z,2.90
2023-03-15T15:01:04.094Z,3.50
2023-03-15T15:04:17.244Z,4.47
2023-03-15T15:07:29.822Z,3.92
2023-03-15T15:10:44.498Z,4.03
2023-03-15T15:13:57.735Z,3.72
2023-03-15T15:17:11.415Z,3.58
2023-03-15T15:20:23.856Z,5.15
2023-03-15T15:23:47.463Z,4.90
2023-03-15T15:27:10.525Z,4.43
2023-03-15T15:30:25.036Z,3.97
2023-03-15T15:33:37.426Z,4.20
2023-03-15T15:36:50.149Z,4.72
2023-03-15T15:40:02.589Z,3.95
2023-03-15T15:43:16.289Z,3.40
2023-03-15T15:46:28.721Z,4.55
2023-03-15T15:49:41.503Z,7.53
2023-03-15T15:53:01.284Z,5.25
2023-03-15T15:56:13.874Z,3.60
2023-03-15T15:59:27.147Z,3.55
2023-03-15T16:02:40.329Z,2.90
2023-03-15T16:05:53.078Z,3.30
2023-03-15T16:09:06.349Z,2.85
2023-03-15T16:12:19.056Z,2.70
2023-03-15T16:15:31.432Z,2.30
2023-03-15T16:18:44.157Z,2.80
2023-03-15T16:21:56.460Z,2.78
2023-03-15T16:25:11.263Z,2.78
2023-03-15T16:28:23.921Z,3.30
2023-03-15T16:31:36.548Z,3.20
2023-03-15T16:34:49.723Z,3.35
2023-03-15T16:38:02.654Z,3.80
2023-03-15T16:41:15.642Z,3.35
2023-03-15T16:44:28.265Z,3.60
2023-03-15T16:47:40.560Z,2.47
2023-03-15T16:50:55.337Z,2.47
2023-03-15T16:54:19.514Z,3.10
2023-03-15T16:57:34.647Z,3.67
2023-03-15T17:00:48.288Z,2.90
2023-03-15T17:04:01.995Z,3.12
2023-03-15T17:07:14.536Z,2.40
2023-03-15T17:10:29.374Z,2.47
2023-03-15T17:13:41.999Z,3.00
2023-03-15T17:16:54.648Z,2.65
2023-03-15T17:20:10.993Z,3.20
2023-03-15T17:23:24.353Z,2.28
2023-03-15T17:26:36.806Z,2.60
2023-03-15T17:29:49.455Z,3.00
2023-03-15T17:33:02.021Z,2.20
2023-03-15T17:36:16.154Z,2.37
2023-03-15T17:39:28.475Z,2.65
2023-03-15T17:42:41.145Z,2.40
2023-03-15T17:45:53.565Z,2.70
2023-03-15T17:49:07.486Z,2.60
2023-03-15T17:52:20.737Z,2.60
2023-03-15T17:55:36.093Z,2.80
2023-03-15T17:58:49.090Z,2.50
2023-03-15T18:02:01.732Z,3.03
2023-03-15T18:05:16.951Z,3.80
2023-03-15T18:08:29.253Z,3.03
2023-03-15T18:11:46.216Z,3.00
2023-03-15T18:14:59.905Z,3.83
2023-03-15T18:18:12.565Z,2.83
2023-03-15T18:21:26.258Z,3.17
2023-03-15T18:24:38.908Z,3.08
2023-03-15T18:27:51.313Z,2.90
2023-03-15T18:31:03.973Z,2.78
2023-03-15T18:34:17.277Z,2.70
2023-03-15T18:37:29.898Z,2.90
2023-03-15T18:40:42.218Z,3.00
2023-03-15T18:43:54.883Z,2.78
2023-03-15T18:47:08.629Z,2.40
2023-03-15T18:50:21.625Z,3.03
2023-03-15T18:53:33.950Z,3.00
2023-03-15T18:56:46.649Z,3.30
2023-03-15T18:59:58.969Z,3.28
2023-03-15T19:03:11.637Z,3.35
2023-03-15T19:06:24.069Z,3.15
2023-03-15T19:09:37.867Z,2.97
2023-03-15T19:12:50.561Z,2.92
2023-03-15T19:16:03.656Z,3.30
2023-03-15T19:19:15.985Z,3.42
2023-03-15T19:22:31.123Z,3.85
2023-03-15T19:25:43.493Z,3.25
2023-03-15T19:28:56.522Z,2.67
2023-03-15T19:32:08.850Z,2.75
2023-03-15T19:35:21.661Z,2.72
2023-03-15T19:38:34.126Z,2.78
2023-03-15T19:41:47.146Z,2.45
2023-03-15T19:44:59.474Z,2.65
2023-03-15T19:48:12.082Z,2.67
2023-03-15T19:51:27.678Z,2.33
2023-03-15T19:54:40.638Z,2.80
2023-03-15T19:57:53.091Z,2.37
2023-03-15T20:01:05.843Z,2.62
2023-03-15T20:04:18.503Z,2.20
2023-03-15T20:07:30.859Z,2.45
2023-03-15T20:10:43.972Z,2.78
2023-03-15T20:13:56.316Z,2.47
2023-03-15T20:17:08.948Z,2.55
2023-03-15T20:20:21.641Z,2.37
2023-03-15T20:23:35.864Z,2.47
2023-03-15T20:26:50.505Z,2.72
2023-03-15T20:30:03.543Z,2.80
2023-03-15T20:33:16.083Z,2.97
2023-03-15T20:36:28.720Z,2.75
2023-03-15T20:39:41.025Z,2.70
2023-03-15T20:42:53.667Z,2.80
2023-03-15T20:46:06.093Z,3.45
2023-03-15T20:49:18.794Z,3.22
2023-03-15T20:52:32.244Z,2.87
2023-03-15T20:55:44.910Z,2.67
2023-03-15T20:58:57.211Z,2.90
2023-03-15T21:02:12.713Z,3.10
2023-03-15T21:05:27.340Z,2.87
2023-03-15T21:08:41.593Z,2.65
2023-03-15T21:11:53.944Z,3.05
2023-03-15T21:15:07.041Z,3.22
2023-03-15T21:18:19.885Z,2.80
2023-03-15T21:21:32.464Z,3.05
2023-03-15T21:24:55.191Z,3.30
2023-03-15T21:28:08.346Z,3.28
2023-03-15T21:31:20.815Z,3.10
2023-03-15T21:34:33.887Z,3.03
2023-03-15T21:37:46.304Z,3.20
2023-03-15T21:40:59.879Z,3.50
2023-03-15T21:44:12.435Z,4.95
2023-03-15T21:47:25.088Z,3.53
2023-03-15T21:50:37.728Z,3.10
2023-03-15T21:53:50.429Z,2.95
2023-03-15T21:57:04.195Z,2.50
2023-03-15T22:00:18.575Z,2.60
2023-03-15T22:03:32.371Z,2.58
2023-03-15T22:06:44.662Z,2.78
2023-03-15T22:09:57.292Z,2.80
2023-03-15T22:13:09.661Z,2.65
2023-03-15T22:16:22.313Z,2.72
2023-03-15T22:19:34.707Z,2.70
2023-03-15T22:22:47.653Z,2.47
2023-03-15T22:25:59.998Z,2.80
2023-03-15T22:29:12.648Z,3.05
2023-03-15T22:32:24.964Z,3.42
2023-03-15T22:35:37.681Z,3.50
2023-03-15T22:38:50.320Z,3.60
2023-03-15T22:42:03.037Z,3.58
2023-03-15T22:45:15.463Z,3.45
2023-03-15T22:48:28.214Z,2.90
2023-03-15T22:51:40.940Z,2.50
2023-03-15T22:54:53.534Z,2.60
2023-03-15T22:58:05.878Z,2.50
2023-03-15T23:01:18.561Z,2.75
2023-03-15T23:04:31.074Z,2.47
2023-03-15T23:07:43.784Z,2.83
2023-03-15T23:10:58.940Z,3.03
2023-03-15T23:14:11.546Z,3.80
2023-03-15T23:17:24.248Z,3.55
2023-03-15T23:20:37.655Z,4.10
2023-03-15T23:23:50.035Z,3.12
2023-03-15T23:27:05.918Z,3.15
2023-03-15T23:30:18.357Z,3.20
2023-03-15T23:33:34.021Z,3.03
2023-03-15T23:36:46.437Z,3.05
2023-03-15T23:39:59.549Z,2.87
2023-03-15T23:43:12.423Z,2.70
2023-03-15T23:46:25.496Z,2.92
2023-03-15T23:49:37.911Z,2.40
2023-03-15T23:52:50.523Z,2.95
2023-03-15T23:56:03.134Z,2.70
2023-03-15T23:59:15.805Z,3.00
